createdAt,value
2023-04-29T00:11:05.519Z,13.52
2023-04-29T00:12:04.497Z,13.54
2023-04-29T00:16:26.331Z,13.61
2023-04-29T00:22:53.684Z,13.61
2023-04-29T00:23:54.603Z,13.65
2023-04-29T00:38:57.466Z,13.56
2023-04-29T00:40:58.494Z,13.56
2023-04-29T00:41:56.869Z,13.59
2023-04-29T00:49:02.835Z,13.47
2023-04-29T00:54:21.952Z,13.49
2023-04-29T00:55:23.305Z,13.51
2023-04-29T01:02:07.019Z,13.41
2023-04-29T01:10:27.806Z,13.36
2023-04-29T01:13:00.429Z,13.41
2023-04-29T01:19:32.411Z,13.47
2023-04-29T01:20:34.958Z,13.47
2023-04-29T01:21:33.036Z,13.49
2023-04-29T01:24:02.366Z,13.61
2023-04-29T01:25:02.849Z,13.62
2023-04-29T01:26:02.878Z,13.65
2023-04-29T01:27:15.608Z,13.69
2023-04-29T01:32:59.083Z,13.54
2023-04-29T01:45:11.946Z,13.36
2023-04-29T02:01:33.795Z,13.25
2023-04-29T02:04:21.777Z,13.25
2023-04-29T02:07:01.479Z,13.27
2023-04-29T02:14:40.455Z,13.22
2023-04-29T02:15:38.115Z,13.24
2023-04-29T02:27:45.444Z,13.17
2023-04-29T02:30:12.817Z,13.18
2023-04-29T02:33:23.851Z,13.11
2023-04-29T02:35:51.192Z,13.06
2023-04-29T02:36:47.826Z,13.06
2023-04-29T02:37:47.260Z,13.07
2023-04-29T02:54:35.299Z,13.09
2023-04-29T02:59:20.559Z,13.06
2023-04-29T03:00:20.087Z,13.06
2023-04-29T03:01:19.503Z,13.09
2023-04-29T03:02:19.076Z,13.15
2023-04-29T03:03:19.159Z,13.20
2023-04-29T04:32:24.577Z,12.81
2023-04-29T04:33:25.559Z,12.84
2023-04-29T04:34:25.601Z,12.88
2023-04-29T04:35:25.701Z,12.92
2023-04-29T04:36:25.777Z,12.99
2023-04-29T04:37:25.865Z,13.04
2023-04-29T04:38:25.931Z,13.11
2023-04-29T04:39:25.976Z,13.15
2023-04-29T04:40:26.080Z,13.20
2023-04-29T04:41:26.170Z,13.25
2023-04-29T04:42:26.280Z,13.30
2023-04-29T04:43:26.324Z,13.33
2023-04-29T04:44:26.425Z,13.37
2023-04-29T05:14:46.466Z,12.92
2023-04-29T05:15:47.483Z,12.92
2023-04-29T05:16:47.610Z,12.95
2023-04-29T05:17:47.668Z,13.02
2023-04-29T05:18:47.689Z,13.06
2023-04-29T05:19:47.784Z,13.11
2023-04-29T05:20:47.873Z,13.17
2023-04-29T05:21:48.000Z,13.21
2023-04-29T05:22:48.057Z,13.25
2023-04-29T05:23:48.156Z,13.30
2023-04-29T05:24:48.282Z,13.36
2023-04-29T05:25:48.332Z,13.38
2023-04-29T05:26:48.414Z,13.41
2023-04-29T05:27:48.470Z,13.44
2023-04-29T05:28:48.566Z,13.46
2023-04-29T05:29:48.683Z,13.49
2023-04-29T05:30:48.757Z,13.52
2023-04-29T05:31:48.822Z,13.55
2023-04-29T05:32:49.052Z,13.56
2023-04-29T05:33:48.960Z,13.58
2023-04-29T05:34:49.055Z,13.59
2023-04-29T05:35:49.163Z,13.61
2023-04-29T05:36:49.219Z,13.62
2023-04-29T05:37:49.279Z,13.65
2023-04-29T05:38:49.362Z,13.67
2023-04-29T05:39:49.477Z,13.67
2023-04-29T05:40:49.509Z,13.69
2023-04-29T05:41:49.633Z,13.70
2023-04-29T05:42:49.675Z,13.71
2023-04-29T05:43:49.784Z,13.71
2023-04-29T05:44:49.869Z,13.73
2023-04-29T05:45:50.014Z,13.74
2023-04-29T05:46:50.062Z,13.77
2023-04-29T05:47:50.167Z,13.79
2023-04-29T05:48:50.172Z,13.79
2023-04-29T05:49:50.414Z,13.80
2023-04-29T05:50:50.338Z,13.80
2023-04-29T05:51:50.473Z,13.81
2023-04-29T05:52:50.538Z,13.83
2023-04-29T05:53:50.634Z,13.83
2023-04-29T05:54:50.713Z,13.84
2023-04-29T05:55:51.260Z,13.87
2023-04-29T05:56:50.862Z,13.87
2023-04-29T05:57:50.930Z,13.88
2023-04-29T05:58:50.976Z,13.88
2023-04-29T06:07:10.999Z,13.63
2023-04-29T06:08:11.384Z,13.62
2023-04-29T06:09:23.820Z,13.62
2023-04-29T06:15:43.555Z,13.46
2023-04-29T06:16:44.516Z,13.47
2023-04-29T06:17:44.690Z,13.47
2023-04-29T06:18:44.690Z,13.54
2023-04-29T06:19:44.744Z,13.56
2023-04-29T06:20:44.839Z,13.62
2023-04-29T06:21:44.935Z,13.65
2023-04-29T06:22:45.009Z,13.70
2023-04-29T06:23:45.144Z,13.76
2023-04-29T06:24:45.186Z,13.79
2023-04-29T06:25:45.239Z,13.83
2023-04-29T06:26:45.327Z,13.88
2023-04-29T06:27:45.370Z,13.89
2023-04-29T06:28:45.499Z,13.92
2023-04-29T06:29:45.536Z,13.94
2023-04-29T06:30:45.656Z,13.98
2023-04-29T06:31:45.770Z,13.98
2023-04-29T06:32:45.860Z,14.01
2023-04-29T06:33:45.887Z,14.02
2023-04-29T06:34:45.936Z,14.04
2023-04-29T06:35:46.033Z,14.06
2023-04-29T06:36:46.119Z,14.07
2023-04-29T06:37:46.212Z,14.10
2023-04-29T06:38:46.351Z,14.13
2023-04-29T06:39:46.396Z,14.14
2023-04-29T06:40:46.499Z,14.16
2023-04-29T06:41:46.591Z,14.16
2023-04-29T06:42:46.690Z,14.17
2023-04-29T06:43:48.631Z,14.19
2023-04-29T06:44:46.865Z,14.17
2023-04-29T06:45:46.918Z,14.19
2023-04-29T06:46:47.032Z,14.20
2023-04-29T06:47:47.203Z,14.21
2023-04-29T06:48:47.273Z,14.24
2023-04-29T06:49:47.288Z,14.25
2023-04-29T06:50:47.383Z,14.28
2023-04-29T06:51:47.436Z,14.29
2023-04-29T06:52:47.549Z,14.31
2023-04-29T07:11:45.165Z,13.91
2023-04-29T07:12:46.453Z,13.94
2023-04-29T07:13:46.264Z,13.94
2023-04-29T07:28:11.944Z,14.12
2023-04-29T07:29:12.943Z,14.17
2023-04-29T07:30:13.006Z,14.21
2023-04-29T07:31:13.126Z,14.27
2023-04-29T07:32:13.407Z,14.37
2023-04-29T07:33:13.228Z,14.44
2023-04-29T07:34:13.321Z,14.52
2023-04-29T07:35:13.397Z,14.57
2023-04-29T07:36:13.500Z,14.64
2023-04-29T07:37:13.606Z,14.71
2023-04-29T07:38:13.685Z,14.78
2023-04-29T07:39:13.738Z,14.83
2023-04-29T07:40:13.877Z,14.88
2023-04-29T07:41:13.920Z,14.93
2023-04-29T07:42:14.041Z,14.98
2023-04-29T07:43:14.155Z,15.02
2023-04-29T07:44:14.262Z,15.06
2023-04-29T07:45:14.260Z,15.11
2023-04-29T07:46:14.378Z,15.12
2023-04-29T07:47:14.520Z,15.17
2023-04-29T07:48:26.839Z,15.20
2023-04-29T07:49:45.469Z,15.24
2023-04-29T07:50:16.779Z,15.27
2023-04-29T07:51:14.799Z,15.28
2023-04-29T07:52:26.208Z,15.33
2023-04-29T07:54:37.633Z,15.39
2023-04-29T07:55:47.746Z,15.39
2023-04-29T07:56:36.050Z,15.41
2023-04-29T07:57:36.071Z,15.42
2023-04-29T07:58:36.056Z,15.45
2023-04-29T07:59:36.862Z,15.48
2023-04-29T08:01:57.496Z,15.51
2023-04-29T08:16:58.622Z,15.24
2023-04-29T08:22:43.886Z,15.24
2023-04-29T08:48:31.324Z,15.49
2023-04-29T08:49:33.762Z,15.52
2023-04-29T08:58:19.977Z,15.66
2023-04-29T09:03:28.634Z,15.75
2023-04-29T09:04:29.484Z,15.78
2023-04-29T09:05:29.842Z,15.82
2023-04-29T09:06:29.619Z,15.92
2023-04-29T09:07:29.763Z,15.99
2023-04-29T09:08:29.750Z,16.06
2023-04-29T09:09:29.795Z,16.14
2023-04-29T09:10:29.914Z,16.22
2023-04-29T09:11:29.978Z,16.26
2023-04-29T09:12:30.038Z,16.34
2023-04-29T09:13:30.119Z,16.38
2023-04-29T09:14:30.219Z,16.42
2023-04-29T09:15:30.282Z,16.48
2023-04-29T09:16:30.445Z,16.52
2023-04-29T09:17:30.538Z,16.55
2023-04-29T09:18:30.555Z,16.60
2023-04-29T09:19:30.650Z,16.62
2023-04-29T09:20:30.757Z,16.65
2023-04-29T09:21:30.869Z,16.67
2023-04-29T09:22:30.920Z,16.70
2023-04-29T09:23:31.019Z,16.70
2023-04-29T09:24:31.128Z,16.71
2023-04-29T09:25:31.222Z,16.73
2023-04-29T09:26:31.327Z,16.73
2023-04-29T09:27:31.458Z,16.74
2023-04-29T09:30:04.714Z,16.73
2023-04-29T09:31:06.695Z,16.68
2023-04-29T09:32:05.724Z,16.67
2023-04-29T09:33:05.901Z,16.67
2023-04-29T09:34:05.885Z,16.65
2023-04-29T09:35:05.972Z,16.67
2023-04-29T09:36:06.030Z,16.67
2023-04-29T09:37:06.175Z,16.67
2023-04-29T09:38:06.228Z,16.67
2023-04-29T09:39:06.290Z,16.68
2023-04-29T09:40:06.350Z,16.68
2023-04-29T09:41:06.405Z,16.68
2023-04-29T09:42:06.568Z,16.68
2023-04-29T09:43:06.738Z,16.70
2023-04-29T09:44:06.688Z,16.71
2023-04-29T09:45:06.728Z,16.74
2023-04-29T09:46:06.886Z,16.75
2023-04-29T09:47:06.927Z,16.75
2023-04-29T09:48:07.011Z,16.75
2023-04-29T09:49:07.078Z,16.78
2023-04-29T09:50:07.160Z,16.78
2023-04-29T09:51:07.260Z,16.80
2023-04-29T09:52:07.409Z,16.81
2023-04-29T09:53:07.445Z,16.83
2023-04-29T09:54:07.490Z,16.85
2023-04-29T09:55:07.595Z,16.86
2023-04-29T09:56:07.668Z,16.89
2023-04-29T09:57:07.806Z,16.90
2023-04-29T09:58:07.850Z,16.93
2023-04-29T09:59:07.951Z,16.93
2023-04-29T10:00:08.017Z,16.95
2023-04-29T10:01:08.153Z,16.96
2023-04-29T10:02:08.187Z,16.96
2023-04-29T10:03:08.429Z,16.98
2023-04-29T10:04:08.393Z,17.00
2023-04-29T10:05:08.536Z,17.03
2023-04-29T10:06:08.588Z,17.06
2023-04-29T10:07:08.652Z,17.08
2023-04-29T10:08:08.726Z,17.07
2023-04-29T10:09:08.798Z,17.08
2023-04-29T10:10:08.835Z,17.10
2023-04-29T10:11:08.933Z,17.11
2023-04-29T10:12:09.042Z,17.10
2023-04-29T10:13:09.081Z,17.11
2023-04-29T10:14:09.170Z,17.13
2023-04-29T10:15:09.266Z,17.14
2023-04-29T10:16:09.425Z,17.17
2023-04-29T10:17:09.466Z,17.20
2023-04-29T10:18:09.548Z,17.23
2023-04-29T10:19:09.636Z,17.26
2023-04-29T10:20:09.674Z,17.29
2023-04-29T10:21:09.772Z,17.32
2023-04-29T10:22:09.899Z,17.38
2023-04-29T10:23:09.994Z,17.40
2023-04-29T10:24:10.047Z,17.41
2023-04-29T10:25:10.169Z,17.43
2023-04-29T10:26:10.209Z,17.46
2023-04-29T10:27:10.356Z,17.48
2023-04-29T10:28:10.359Z,17.48
2023-04-29T10:29:10.451Z,17.50
2023-04-29T10:30:10.541Z,17.53
2023-04-29T10:31:10.686Z,17.54
2023-04-29T10:32:10.769Z,17.55
2023-04-29T10:33:10.850Z,17.54
2023-04-29T10:34:10.865Z,17.57
2023-04-29T10:35:10.969Z,17.59
2023-04-29T10:36:11.076Z,17.63
2023-04-29T10:37:11.153Z,17.67
2023-04-29T10:38:11.197Z,17.70
2023-04-29T10:39:11.289Z,17.73
2023-04-29T10:40:11.380Z,17.78
2023-04-29T10:41:11.473Z,17.79
2023-04-29T10:42:11.590Z,17.82
2023-04-29T10:43:11.635Z,17.85
2023-04-29T10:44:11.719Z,17.85
2023-04-29T10:45:11.803Z,17.87
2023-04-29T10:46:11.942Z,17.87
2023-04-29T10:47:12.011Z,17.87
2023-04-29T10:48:12.017Z,17.87
2023-04-29T10:49:12.122Z,17.88
2023-04-29T10:50:12.220Z,17.89
2023-04-29T10:51:12.289Z,17.91
2023-04-29T10:52:12.383Z,17.92
2023-04-29T10:53:12.496Z,17.92
2023-04-29T10:54:12.559Z,17.94
2023-04-29T10:55:12.651Z,17.94
2023-04-29T10:56:12.745Z,17.92
2023-04-29T10:57:12.849Z,17.91
2023-04-29T10:58:12.886Z,17.89
2023-04-29T10:59:12.996Z,17.91
2023-04-29T11:00:14.668Z,17.92
2023-04-29T11:01:13.182Z,17.92
2023-04-29T11:02:13.209Z,17.92
2023-04-29T11:03:13.313Z,17.92
2023-04-29T11:04:13.508Z,17.91
2023-04-29T11:05:13.414Z,17.91
2023-04-29T11:06:13.507Z,17.91
2023-04-29T11:07:13.626Z,17.92
2023-04-29T11:08:13.664Z,17.95
2023-04-29T11:09:13.764Z,17.92
2023-04-29T11:10:13.944Z,17.92
2023-04-29T11:11:13.930Z,17.92
2023-04-29T11:12:14.014Z,17.89
2023-04-29T11:13:14.126Z,17.91
2023-04-29T11:14:14.187Z,17.91
2023-04-29T11:15:14.272Z,17.94
2023-04-29T11:16:14.443Z,17.95
2023-04-29T11:17:14.509Z,17.99
2023-04-29T11:18:14.608Z,18.03
2023-04-29T11:19:14.655Z,18.06
2023-04-29T11:20:14.765Z,18.12
2023-04-29T11:21:14.839Z,18.13
2023-04-29T11:22:16.592Z,18.18
2023-04-29T11:23:15.016Z,18.22
2023-04-29T11:24:15.112Z,18.27
2023-04-29T11:25:15.213Z,18.31
2023-04-29T11:26:15.269Z,18.31
2023-04-29T11:27:15.369Z,18.33
2023-04-29T11:28:15.498Z,18.34
2023-04-29T11:29:15.565Z,18.37
2023-04-29T11:30:15.608Z,18.40
2023-04-29T11:31:34.336Z,18.46
2023-04-29T11:32:15.908Z,18.47
2023-04-29T11:33:15.989Z,18.50
2023-04-29T11:34:15.965Z,18.54
2023-04-29T11:35:16.109Z,18.57
2023-04-29T11:36:16.160Z,18.58
2023-04-29T11:37:16.308Z,18.61
2023-04-29T11:41:24.708Z,18.44
2023-04-29T11:42:25.692Z,18.43
2023-04-29T11:43:25.738Z,18.40
2023-04-29T11:44:25.782Z,18.40
2023-04-29T11:45:25.886Z,18.42
2023-04-29T11:46:26.003Z,18.43
2023-04-29T11:47:26.078Z,18.49
2023-04-29T11:48:26.165Z,18.52
2023-04-29T11:49:26.229Z,18.58
2023-04-29T11:50:26.321Z,18.59
2023-04-29T11:51:26.366Z,18.64
2023-04-29T11:52:26.499Z,18.70
2023-04-29T11:53:26.605Z,18.73
2023-04-29T11:54:26.629Z,18.79
2023-04-29T11:55:26.681Z,18.82
2023-04-29T11:56:26.764Z,18.86
2023-04-29T11:57:26.856Z,18.86
2023-04-29T11:58:26.984Z,18.87
2023-04-29T11:59:27.032Z,18.83
2023-04-29T12:00:27.119Z,18.79
2023-04-29T12:01:27.246Z,18.77
2023-04-29T12:02:27.394Z,18.76
2023-04-29T12:03:27.571Z,18.77
2023-04-29T12:04:27.739Z,18.76
2023-04-29T12:05:27.633Z,18.79
2023-04-29T12:06:27.671Z,18.83
2023-04-29T12:07:27.714Z,18.86
2023-04-29T12:08:27.820Z,18.87
2023-04-29T12:09:27.881Z,18.94
2023-04-29T12:10:27.979Z,18.98
2023-04-29T12:11:28.063Z,19.01
2023-04-29T12:12:28.166Z,19.06
2023-04-29T12:13:28.242Z,19.08
2023-04-29T12:14:28.289Z,19.13
2023-04-29T12:15:28.389Z,19.14
2023-04-29T12:16:28.526Z,19.17
2023-04-29T12:17:28.633Z,19.18
2023-04-29T12:18:28.707Z,19.18
2023-04-29T12:19:28.758Z,19.21
2023-04-29T12:20:28.853Z,19.25
2023-04-29T12:21:28.894Z,19.32
2023-04-29T12:22:28.989Z,19.35
2023-04-29T12:27:00.909Z,19.33
2023-04-29T12:41:41.108Z,19.06
2023-04-29T12:46:48.891Z,18.92
2023-04-29T12:47:49.102Z,18.95
2023-04-29T12:57:15.722Z,18.87
2023-04-29T12:58:17.055Z,18.90
2023-04-29T12:59:16.066Z,18.92
2023-04-29T13:00:16.115Z,18.97
2023-04-29T13:14:21.207Z,19.06
2023-04-29T13:15:18.210Z,19.02
2023-04-29T13:16:18.301Z,19.05
2023-04-29T13:17:18.286Z,19.06
2023-04-29T13:18:18.316Z,19.13
2023-04-29T13:28:16.009Z,18.82
2023-04-29T14:13:03.071Z,17.97
2023-04-29T14:42:47.921Z,17.47
2023-04-29T14:43:34.127Z,17.48
2023-04-29T14:44:34.381Z,17.53
2023-04-29T14:47:18.224Z,17.64
2023-04-29T14:48:20.258Z,17.67
2023-04-29T14:49:19.469Z,17.70
2023-04-29T14:50:19.429Z,17.73
2023-04-29T14:51:19.546Z,17.74
2023-04-29T14:52:19.654Z,17.78
2023-04-29T14:53:19.660Z,17.81
2023-04-29T14:54:19.750Z,17.84
2023-04-29T14:55:19.798Z,17.88
2023-04-29T14:56:37.462Z,17.89
2023-04-29T14:57:20.033Z,17.89
2023-04-29T14:58:20.168Z,17.89
2023-04-29T14:59:20.212Z,17.89
2023-04-29T15:00:20.263Z,17.89
2023-04-29T15:01:20.344Z,17.92
2023-04-29T15:02:20.435Z,17.92
2023-04-29T15:03:22.885Z,17.94
2023-04-29T15:04:20.574Z,17.94
2023-04-29T15:05:20.670Z,17.95
2023-04-29T15:06:20.791Z,17.95
2023-04-29T15:07:20.874Z,17.95
2023-04-29T15:08:20.946Z,17.99
2023-04-29T15:09:20.997Z,18.00
2023-04-29T15:10:21.088Z,18.00
2023-04-29T15:11:21.198Z,18.02
2023-04-29T15:12:21.276Z,18.02
2023-04-29T15:13:21.349Z,18.03
2023-04-29T15:14:21.402Z,18.03
2023-04-29T15:15:21.497Z,18.04
2023-04-29T15:16:21.699Z,18.06
2023-04-29T15:17:21.704Z,18.09
2023-04-29T15:18:21.810Z,18.12
2023-04-29T15:19:21.835Z,18.13
2023-04-29T15:20:21.938Z,18.15
2023-04-29T15:21:22.019Z,18.17
2023-04-29T15:22:22.128Z,18.18
2023-04-29T15:23:22.216Z,18.22
2023-04-29T15:24:22.238Z,18.22
2023-04-29T15:25:24.223Z,18.25
2023-04-29T15:26:22.418Z,18.28
2023-04-29T15:27:22.523Z,18.28
2023-04-29T15:28:22.585Z,18.31
2023-04-29T15:29:22.664Z,18.33
2023-04-29T15:30:22.722Z,18.34
2023-04-29T15:41:07.707Z,17.97
2023-04-29T15:42:08.584Z,17.95
2023-04-29T15:43:08.652Z,17.97
2023-04-29T15:44:08.857Z,17.97
2023-04-29T15:45:08.920Z,18.00
2023-04-29T15:46:08.952Z,18.04
2023-04-29T15:47:09.009Z,18.07
2023-04-29T15:48:09.196Z,18.07
2023-04-29T15:49:09.206Z,18.09
2023-04-29T15:50:09.289Z,18.12
2023-04-29T15:51:09.374Z,18.13
2023-04-29T15:52:09.445Z,18.15
2023-04-29T15:54:31.222Z,18.15
2023-04-29T15:55:32.267Z,18.12
2023-04-29T15:56:32.302Z,18.12
2023-04-29T15:57:32.293Z,18.12
2023-04-29T15:58:32.349Z,18.12
2023-04-29T15:59:32.450Z,18.13
2023-04-29T16:00:32.549Z,18.15
2023-04-29T16:01:34.294Z,18.15
2023-04-29T16:02:32.679Z,18.17
2023-04-29T16:03:32.774Z,18.15
2023-04-29T16:04:32.887Z,18.15
2023-04-29T16:05:32.943Z,18.15
2023-04-29T16:06:33.076Z,18.15
2023-04-29T16:07:34.842Z,18.15
2023-04-29T16:08:33.173Z,18.15
2023-04-29T16:09:33.257Z,18.17
2023-04-29T16:10:33.346Z,18.15
2023-04-29T16:11:33.404Z,18.17
2023-04-29T16:14:14.982Z,18.15
2023-04-29T16:15:08.149Z,18.13
2023-04-29T16:16:07.381Z,18.10
2023-04-29T16:17:07.457Z,18.12
2023-04-29T16:18:07.481Z,18.10
2023-04-29T16:19:09.698Z,18.09
2023-04-29T16:33:02.894Z,17.41
2023-04-29T16:47:04.523Z,17.10
2023-04-29T16:48:05.626Z,17.11
2023-04-29T16:49:05.669Z,17.13
2023-04-29T16:50:05.636Z,17.17
2023-04-29T16:51:05.774Z,17.20
2023-04-29T16:52:05.876Z,17.25
2023-04-29T16:53:05.946Z,17.26
2023-04-29T16:54:05.984Z,17.32
2023-04-29T16:55:06.090Z,17.35
2023-04-29T16:57:23.806Z,17.41
2023-04-29T16:58:24.750Z,17.41
2023-04-29T16:59:24.760Z,17.41
2023-04-29T17:00:24.844Z,17.43
2023-04-29T17:01:24.903Z,17.46
2023-04-29T17:02:42.949Z,17.47
2023-04-29T17:03:25.050Z,17.47
2023-04-29T17:04:25.176Z,17.51
2023-04-29T17:13:27.711Z,17.17
2023-04-29T17:14:15.867Z,17.13
2023-04-29T17:15:15.235Z,17.11
2023-04-29T17:23:39.087Z,16.86
2023-04-29T17:45:24.258Z,16.09
2023-04-29T17:47:51.772Z,16.00
2023-04-29T17:48:52.614Z,15.97
2023-04-29T17:52:06.329Z,15.94
2023-04-29T17:53:07.294Z,15.96
2023-04-29T17:54:07.402Z,15.97
2023-04-29T17:55:07.443Z,15.99
2023-04-29T17:56:07.527Z,16.01
2023-04-29T17:57:07.585Z,16.04
2023-04-29T17:58:07.636Z,16.07
2023-04-29T17:59:07.734Z,16.11
2023-04-29T18:00:07.855Z,16.12
2023-04-29T18:01:07.952Z,16.14
2023-04-29T18:02:07.972Z,16.16
2023-04-29T18:03:08.154Z,16.18
2023-04-29T18:04:08.208Z,16.22
2023-04-29T18:05:08.271Z,16.23
2023-04-29T18:06:08.345Z,16.25
2023-04-29T18:07:08.450Z,16.27
2023-04-29T18:08:08.516Z,16.30
2023-04-29T18:09:08.564Z,16.31
2023-04-29T18:10:08.665Z,16.33
2023-04-29T18:11:08.760Z,16.34
2023-04-29T18:33:01.694Z,15.45
2023-04-29T18:34:02.745Z,15.46
2023-04-29T18:35:02.745Z,15.48
2023-04-29T18:36:02.839Z,15.51
2023-04-29T18:37:02.920Z,15.54
2023-04-29T18:38:02.999Z,15.59
2023-04-29T18:39:03.274Z,15.63
2023-04-29T18:40:03.151Z,15.64
2023-04-29T18:41:03.243Z,15.67
2023-04-29T18:42:03.311Z,15.68
2023-04-29T18:43:03.377Z,15.70
2023-04-29T18:44:03.456Z,15.72
2023-04-29T18:45:03.572Z,15.75
2023-04-29T18:46:03.753Z,15.76
2023-04-29T18:47:03.668Z,15.78
2023-04-29T18:48:03.831Z,15.81
2023-04-29T18:49:03.862Z,15.82
2023-04-29T18:50:03.952Z,15.84
2023-04-29T18:51:04.020Z,15.86
2023-04-29T18:52:04.099Z,15.88
2023-04-29T18:53:04.226Z,15.89
2023-04-29T18:54:04.288Z,15.92
2023-04-29T18:55:04.386Z,15.92
2023-04-29T18:56:04.483Z,15.96
2023-04-29T18:57:04.534Z,15.96
2023-04-29T18:58:05.578Z,15.97
2023-04-29T18:59:04.715Z,15.99
2023-04-29T19:00:04.805Z,16.00
2023-04-29T19:01:04.953Z,15.99
2023-04-29T19:02:04.992Z,16.01
2023-04-29T19:03:05.090Z,16.03
2023-04-29T19:04:05.300Z,16.03
2023-04-29T19:05:05.285Z,16.03
2023-04-29T19:06:05.359Z,16.06
2023-04-29T19:07:05.393Z,16.06
2023-04-29T19:08:05.487Z,16.07
2023-04-29T19:09:05.576Z,16.06
2023-04-29T19:10:05.682Z,16.07
2023-04-29T19:11:05.760Z,16.06
2023-04-29T19:12:05.870Z,16.03
2023-04-29T19:13:05.899Z,16.04
2023-04-29T19:14:06.093Z,16.04
2023-04-29T19:15:06.102Z,16.04
2023-04-29T19:16:06.268Z,16.06
2023-04-29T19:17:06.276Z,16.06
2023-04-29T19:18:06.383Z,16.07
2023-04-29T19:19:07.041Z,16.07
2023-04-29T19:20:15.816Z,16.06
2023-04-29T19:21:07.610Z,16.04
2023-04-29T19:22:06.704Z,16.03
2023-04-29T19:23:06.771Z,16.01
2023-04-29T19:24:06.894Z,16.03
2023-04-29T19:25:06.938Z,16.06
2023-04-29T19:26:07.068Z,16.06
2023-04-29T19:27:07.132Z,16.07
2023-04-29T19:28:07.182Z,16.09
2023-04-29T19:29:07.284Z,16.11
2023-04-29T19:30:07.440Z,16.12
2023-04-29T19:31:08.713Z,16.12
2023-04-29T19:32:08.967Z,16.15
2023-04-29T19:33:07.666Z,16.14
2023-04-29T19:34:07.668Z,16.14
2023-04-29T19:35:07.785Z,16.14
2023-04-29T19:36:07.816Z,16.15
2023-04-29T19:37:07.935Z,16.15
2023-04-29T19:38:07.998Z,16.15
2023-04-29T19:39:08.105Z,16.14
2023-04-29T19:40:08.196Z,16.11
2023-04-29T19:41:08.255Z,16.12
2023-04-29T19:42:08.349Z,16.11
2023-04-29T19:43:08.409Z,16.09
2023-04-29T19:44:08.505Z,16.09
2023-04-29T19:45:08.626Z,16.07
2023-04-29T19:46:08.747Z,16.04
2023-04-29T19:47:08.815Z,16.03
2023-04-29T19:48:08.938Z,16.01
2023-04-29T19:49:08.979Z,16.03
2023-04-29T19:50:09.016Z,16.00
2023-04-29T19:51:09.122Z,15.99
2023-04-29T19:52:09.249Z,15.99
2023-04-29T19:53:09.303Z,15.96
2023-04-29T19:54:09.405Z,15.94
2023-04-29T19:55:09.460Z,15.94
2023-04-29T19:56:09.523Z,15.92
2023-04-29T19:57:09.633Z,15.92
2023-04-29T19:58:09.731Z,15.88
2023-04-29T19:59:09.788Z,15.85
2023-04-29T20:00:09.866Z,15.84
2023-04-29T20:01:10.007Z,15.82
2023-04-29T20:02:10.096Z,15.79
2023-04-29T20:03:10.255Z,15.78
2023-04-29T20:04:12.610Z,15.76
2023-04-29T20:05:10.411Z,15.74
2023-04-29T20:06:10.476Z,15.72
2023-04-29T20:07:10.517Z,15.70
2023-04-29T20:08:10.657Z,15.67
2023-04-29T20:09:10.711Z,15.64
2023-04-29T20:10:10.781Z,15.64
2023-04-29T20:11:10.875Z,15.63
2023-04-29T20:12:10.916Z,15.61
2023-04-29T20:13:11.039Z,15.61
2023-04-29T20:14:11.096Z,15.59
2023-04-29T20:15:11.168Z,15.57
2023-04-29T20:16:11.409Z,15.56
2023-04-29T20:17:11.325Z,15.56
2023-04-29T20:18:11.454Z,15.56
2023-04-29T20:19:11.525Z,15.54
2023-04-29T20:20:11.597Z,15.51
2023-04-29T20:21:11.674Z,15.51
2023-04-29T20:22:11.769Z,15.49
2023-04-29T20:23:11.884Z,15.49
2023-04-29T20:24:11.938Z,15.48
2023-04-29T20:25:12.055Z,15.46
2023-04-29T20:26:12.105Z,15.45
2023-04-29T20:27:12.210Z,15.42
2023-04-29T20:28:12.285Z,15.42
2023-04-29T20:29:12.328Z,15.39
2023-04-29T20:30:12.414Z,15.39
2023-04-29T20:31:12.520Z,15.38
2023-04-29T20:32:12.621Z,15.36
2023-04-29T20:33:12.732Z,15.33
2023-04-29T20:34:12.751Z,15.33
2023-04-29T20:35:12.858Z,15.31
2023-04-29T20:36:12.942Z,15.30
2023-04-29T20:37:13.027Z,15.30
2023-04-29T20:40:35.606Z,15.21
2023-04-29T20:41:36.686Z,15.17
2023-04-29T20:42:36.704Z,15.15
2023-04-29T20:43:36.818Z,15.13
2023-04-29T20:44:37.544Z,15.15
2023-04-29T20:45:36.976Z,15.15
2023-04-29T20:46:37.069Z,15.15
2023-04-29T20:47:37.082Z,15.17
2023-04-29T20:48:37.220Z,15.17
2023-04-29T20:49:37.312Z,15.15
2023-04-29T20:50:37.383Z,15.19
2023-04-29T20:51:37.444Z,15.17
2023-04-29T20:52:37.535Z,15.15
2023-04-29T20:53:37.665Z,15.19
2023-04-29T20:54:37.773Z,15.19
2023-04-29T20:55:37.783Z,15.19
2023-04-29T20:56:37.877Z,15.17
2023-04-29T20:57:38.044Z,15.19
2023-04-29T20:58:38.075Z,15.13
2023-04-29T20:59:38.171Z,15.13
2023-04-29T21:00:38.212Z,15.13
2023-04-29T21:01:38.339Z,15.11
2023-04-29T21:02:38.403Z,15.12
2023-04-29T21:03:38.479Z,15.09
2023-04-29T21:04:38.590Z,15.08
2023-04-29T21:05:38.605Z,15.06
2023-04-29T21:06:38.773Z,15.06
2023-04-29T21:07:38.797Z,15.05
2023-04-29T21:08:38.877Z,15.03
2023-04-29T21:09:38.922Z,15.02
2023-04-29T21:10:39.015Z,15.02
2023-04-29T21:11:39.112Z,15.03
2023-04-29T21:12:39.195Z,15.02
2023-04-29T21:13:39.296Z,15.03
2023-04-29T21:14:40.842Z,15.02
2023-04-29T21:15:39.501Z,15.02
2023-04-29T21:16:39.521Z,15.03
2023-04-29T21:17:39.600Z,15.03
2023-04-29T21:18:39.714Z,15.01
2023-04-29T21:19:39.771Z,15.02
2023-04-29T21:20:39.877Z,14.99
2023-04-29T21:21:39.930Z,15.02
2023-04-29T21:22:40.039Z,15.01
2023-04-29T21:23:40.140Z,14.99
2023-04-29T21:24:40.203Z,14.98
2023-04-29T21:25:40.254Z,14.98
2023-04-29T21:26:40.338Z,14.98
2023-04-29T21:27:40.426Z,14.98
2023-04-29T21:28:40.540Z,14.95
2023-04-29T21:29:40.677Z,14.98
2023-04-29T21:30:40.687Z,14.98
2023-04-29T21:31:40.811Z,14.98
2023-04-29T21:32:40.889Z,14.95
2023-04-29T21:33:40.944Z,14.95
2023-04-29T21:34:41.014Z,14.94
2023-04-29T21:35:41.052Z,14.94
2023-04-29T21:36:41.146Z,14.93
2023-04-29T21:37:41.239Z,14.91
2023-04-29T21:38:41.368Z,14.93
2023-04-29T21:39:41.423Z,14.91
2023-04-29T21:40:41.521Z,14.90
2023-04-29T21:41:41.599Z,14.88
2023-04-29T21:42:41.694Z,14.88
2023-04-29T21:43:41.805Z,14.88
2023-04-29T21:44:41.891Z,14.87
2023-04-29T21:45:41.962Z,14.88
2023-04-29T21:46:42.135Z,14.87
2023-04-29T21:47:42.140Z,14.87
2023-04-29T21:48:42.210Z,14.86
2023-04-29T21:49:42.259Z,14.84
2023-04-29T21:50:42.372Z,14.81
2023-04-29T21:51:42.468Z,14.83
2023-04-29T21:52:42.558Z,14.81
2023-04-29T21:53:42.649Z,14.81
2023-04-29T21:54:42.745Z,14.80
2023-04-29T21:55:42.817Z,14.78
2023-04-29T21:56:42.918Z,14.75
2023-04-29T21:57:44.844Z,14.74
2023-04-29T21:58:43.888Z,14.74
2023-04-29T21:59:43.120Z,14.74
2023-04-29T22:00:43.238Z,14.72
2023-04-29T22:01:43.295Z,14.71
2023-04-29T22:02:43.343Z,14.69
2023-04-29T22:03:43.458Z,14.68
2023-04-29T22:04:43.479Z,14.65
2023-04-29T22:05:43.573Z,14.67
2023-04-29T22:06:43.769Z,14.67
2023-04-29T22:07:43.714Z,14.67
2023-04-29T22:08:43.817Z,14.64
2023-04-29T22:09:43.868Z,14.62
2023-04-29T22:10:43.980Z,14.62
2023-04-29T22:11:44.063Z,14.60
2023-04-29T22:12:44.152Z,14.60
2023-04-29T22:13:44.289Z,14.60
2023-04-29T22:14:44.226Z,14.57
2023-04-29T22:15:44.330Z,14.57
2023-04-29T22:16:44.462Z,14.54
2023-04-29T22:17:44.609Z,14.53
2023-04-29T22:18:44.594Z,14.52
2023-04-29T22:19:44.685Z,14.50
2023-04-29T22:20:44.769Z,14.50
2023-04-29T22:21:44.849Z,14.49
2023-04-29T22:22:44.967Z,14.47
2023-04-29T22:23:45.017Z,14.46
2023-04-29T22:24:45.116Z,14.47
2023-04-29T22:25:45.202Z,14.46
2023-04-29T22:26:45.319Z,14.44
2023-04-29T22:27:45.431Z,14.46
2023-04-29T22:28:45.503Z,14.47
2023-04-29T22:29:45.542Z,14.46
2023-04-29T22:30:45.631Z,14.46
2023-04-29T22:31:45.785Z,14.46
2023-04-29T22:32:45.856Z,14.46
2023-04-29T22:33:45.917Z,14.44
2023-04-29T22:34:46.003Z,14.44
2023-04-29T22:35:46.086Z,14.44
2023-04-29T22:36:46.180Z,14.43
2023-04-29T22:37:46.280Z,14.43
2023-04-29T22:38:46.338Z,14.43
2023-04-29T22:39:46.420Z,14.42
2023-04-29T22:40:47.472Z,14.43
2023-04-29T22:41:46.609Z,14.42
2023-04-29T22:42:46.715Z,14.39
2023-04-29T22:43:46.777Z,14.39
2023-04-29T22:44:46.855Z,14.39
2023-04-29T22:45:47.009Z,14.38
2023-04-29T22:46:47.044Z,14.38
2023-04-29T22:47:47.144Z,14.38
2023-04-29T22:48:47.185Z,14.37
2023-04-29T22:49:47.249Z,14.37
2023-04-29T22:50:47.440Z,14.37